createdAt,value
2018-12-03T00:00:18.976Z,95.68
2018-12-03T00:01:18.864Z,95.72
2018-12-03T00:02:18.807Z,95.74
2018-12-03T00:03:18.586Z,95.69
2018-12-03T00:04:18.684Z,95.61
2018-12-03T00:05:19.047Z,95.49
2018-12-03T00:06:18.697Z,95.53
2018-12-03T00:07:18.687Z,95.56
2018-12-03T00:08:18.804Z,95.52
2018-12-03T00:09:18.616Z,95.41
2018-12-03T00:10:18.855Z,95.34
2018-12-03T00:11:18.798Z,95.34
2018-12-03T00:12:18.729Z,95.24
2018-12-03T00:13:18.634Z,95.18
2018-12-03T00:14:18.767Z,95.33
2018-12-03T00:15:18.655Z,95.43
2018-12-03T00:16:18.601Z,95.45
2018-12-03T00:17:18.596Z,95.52
2018-12-03T00:18:19.101Z,95.39
2018-12-03T00:19:18.712Z,95.4
2018-12-03T00:20:18.802Z,95.44
2018-12-03T00:21:18.708Z,95.39
2018-12-03T00:22:18.577Z,95.42
2018-12-03T00:23:18.792Z,95.35
2018-12-03T00:24:18.802Z,95.36
2018-12-03T00:25:18.800Z,95.37
2018-12-03T00:26:18.715Z,95.28
2018-12-03T00:27:18.574Z,95.17
2018-12-03T00:28:18.751Z,95.09
2018-12-03T00:29:18.812Z,95.06
2018-12-03T00:30:18.632Z,94.99
2018-12-03T00:31:18.661Z,94.93
2018-12-03T00:32:18.783Z,94.78
2018-12-03T00:33:18.653Z,94.74
2018-12-03T00:34:18.864Z,94.75
2018-12-03T00:35:18.781Z,94.76
2018-12-03T00:36:18.572Z,94.83
2018-12-03T00:37:18.609Z,95.02
2018-12-03T00:38:18.605Z,95.02
2018-12-03T00:39:18.665Z,94.93
2018-12-03T00:40:18.753Z,94.88
2018-12-03T00:41:18.691Z,94.99
2018-12-03T00:42:18.619Z,95.04
2018-12-03T00:43:18.572Z,94.94
2018-12-03T00:44:18.843Z,95.08
2018-12-03T00:45:18.585Z,95.2
2018-12-03T00:46:18.613Z,95.32
2018-12-03T00:47:18.878Z,95.34
2018-12-03T00:48:18.765Z,95.28
2018-12-03T00:49:18.639Z,95.35
2018-12-03T00:50:18.703Z,95.28
2018-12-03T00:51:18.739Z,95.31
2018-12-03T00:52:18.606Z,95.29
2018-12-03T00:53:18.901Z,95.32
2018-12-03T00:54:18.767Z,95.39
2018-12-03T00:55:18.774Z,95.37
2018-12-03T00:56:18.607Z,95.36
2018-12-03T00:57:18.709Z,95.39
2018-12-03T00:58:18.657Z,95.49
2018-12-03T00:59:18.837Z,95.42
2018-12-03T01:00:18.762Z,95.47
2018-12-03T01:01:18.547Z,95.55
2018-12-03T01:02:18.721Z,95.52
2018-12-03T01:03:18.814Z,95.5
2018-12-03T01:04:18.754Z,95.5
2018-12-03T01:05:18.554Z,95.44
2018-12-03T01:06:18.729Z,95.57
2018-12-03T01:07:18.558Z,95.61
2018-12-03T01:08:18.660Z,95.57
2018-12-03T01:09:18.936Z,95.52
2018-12-03T01:10:18.631Z,95.45
2018-12-03T01:11:18.673Z,95.5
2018-12-03T01:12:18.738Z,95.71
2018-12-03T01:13:18.571Z,95.72
2018-12-03T01:14:18.663Z,95.81
2018-12-03T01:15:18.493Z,95.72
2018-12-03T01:16:18.755Z,95.82
2018-12-03T01:17:18.614Z,95.68
2018-12-03T01:18:18.533Z,95.61
2018-12-03T01:19:18.593Z,95.66
2018-12-03T01:20:18.564Z,95.64
2018-12-03T01:21:18.644Z,95.66
2018-12-03T01:22:18.542Z,95.61
2018-12-03T01:23:18.554Z,95.58
2018-12-03T01:24:18.546Z,95.66
2018-12-03T01:25:18.599Z,95.74
2018-12-03T01:26:18.603Z,95.77
2018-12-03T01:27:18.534Z,95.79
2018-12-03T01:28:18.862Z,95.78
2018-12-03T01:29:18.869Z,95.77
2018-12-03T01:30:18.600Z,95.77
2018-12-03T01:31:18.500Z,95.7
2018-12-03T01:32:18.528Z,95.62
2018-12-03T01:33:18.540Z,95.52
2018-12-03T01:34:18.491Z,95.52
2018-12-03T01:35:18.720Z,95.6
2018-12-03T01:36:18.941Z,95.5
2018-12-03T01:37:18.585Z,95.36
2018-12-03T01:38:18.590Z,95.5
2018-12-03T01:39:18.524Z,95.55
2018-12-03T01:40:18.537Z,95.64
2018-12-03T01:41:18.546Z,95.59
2018-12-03T01:42:18.469Z,95.53
2018-12-03T01:43:18.694Z,95.55
2018-12-03T01:44:18.479Z,95.59
2018-12-03T01:45:18.604Z,95.52
2018-12-03T01:46:18.671Z,95.51
2018-12-03T01:47:18.489Z,95.59
2018-12-03T01:48:19.360Z,95.71
2018-12-03T01:49:18.805Z,95.69
2018-12-03T01:50:18.716Z,95.58
2018-12-03T01:51:18.619Z,95.49
2018-12-03T01:52:18.687Z,95.5
2018-12-03T01:53:18.716Z,95.58
2018-12-03T01:54:18.570Z,95.56
2018-12-03T01:55:18.545Z,95.4
2018-12-03T01:56:18.715Z,95.5
2018-12-03T01:57:18.877Z,95.5
2018-12-03T01:58:18.701Z,95.48
2018-12-03T01:59:18.593Z,95.47
2018-12-03T02:00:18.644Z,95.42
2018-12-03T02:01:18.606Z,95.39
2018-12-03T02:02:18.556Z,95.35
2018-12-03T02:03:18.596Z,95.34
2018-12-03T02:04:18.545Z,95.31
2018-12-03T02:05:18.543Z,95.34
2018-12-03T02:06:18.575Z,95.49
2018-12-03T02:07:18.694Z,95.56
2018-12-03T02:08:18.727Z,95.45
2018-12-03T02:09:18.624Z,95.57
2018-12-03T02:10:18.561Z,95.49
2018-12-03T02:11:18.485Z,95.59
2018-12-03T02:12:18.665Z,95.55
2018-12-03T02:13:18.509Z,95.62
2018-12-03T02:14:19.022Z,95.57
2018-12-03T02:15:18.819Z,95.6
2018-12-03T02:16:18.511Z,95.34
2018-12-03T02:17:18.498Z,95.37
2018-12-03T02:18:18.554Z,95.51
2018-12-03T02:19:18.767Z,95.35
2018-12-03T02:20:18.538Z,95.47
2018-12-03T02:21:18.493Z,95.46
2018-12-03T02:22:18.582Z,95.49
2018-12-03T02:23:18.609Z,95.38
2018-12-03T02:24:18.666Z,95.42
2018-12-03T02:25:18.536Z,95.36
2018-12-03T02:26:18.555Z,95.32
2018-12-03T02:27:18.553Z,95.34
2018-12-03T02:28:18.520Z,95.43
2018-12-03T02:29:18.474Z,95.39
2018-12-03T02:30:18.506Z,95.37
2018-12-03T02:31:18.537Z,95.43
2018-12-03T02:32:18.692Z,95.53
2018-12-03T02:33:18.528Z,95.54
2018-12-03T02:34:18.547Z,95.45
2018-12-03T02:35:18.518Z,95.47
2018-12-03T02:36:18.422Z,95.43
2018-12-03T02:37:18.573Z,95.48
2018-12-03T02:38:18.697Z,95.41
2018-12-03T02:39:18.692Z,95.5
2018-12-03T02:40:18.529Z,95.48
2018-12-03T02:41:18.478Z,95.44
2018-12-03T02:42:18.623Z,95.48
2018-12-03T02:43:18.617Z,95.52
2018-12-03T02:44:18.470Z,95.39
2018-12-03T02:45:18.600Z,95.36
2018-12-03T02:46:18.629Z,95.52
2018-12-03T02:47:18.491Z,95.34
2018-12-03T02:48:18.578Z,95.28
2018-12-03T02:49:18.484Z,95.35
2018-12-03T02:50:18.552Z,95.26
2018-12-03T02:51:18.466Z,95.26
2018-12-03T02:52:18.451Z,95.25
2018-12-03T02:53:18.459Z,95.33
2018-12-03T02:54:18.450Z,95.39
2018-12-03T02:55:18.523Z,95.36
2018-12-03T02:56:18.449Z,95.32
2018-12-03T02:57:18.489Z,95.39
2018-12-03T02:58:18.461Z,95.37
2018-12-03T02:59:18.452Z,95.32
2018-12-03T03:00:18.398Z,95.2
2018-12-03T03:01:18.435Z,95.04
2018-12-03T03:02:18.733Z,95.19
2018-12-03T03:03:18.439Z,95.16
2018-12-03T03:04:18.411Z,95.1
2018-12-03T03:05:18.429Z,95.12
2018-12-03T03:06:18.391Z,95.08
2018-12-03T03:07:18.523Z,95.09
2018-12-03T03:08:18.391Z,95.03
2018-12-03T03:09:18.455Z,95.04
2018-12-03T03:10:18.428Z,95.01
2018-12-03T03:11:18.623Z,94.92
2018-12-03T03:12:18.452Z,94.99
2018-12-03T03:13:18.536Z,95.03
2018-12-03T03:14:18.613Z,94.92
2018-12-03T03:15:18.695Z,94.89
2018-12-03T03:16:18.531Z,94.81
2018-12-03T03:17:18.437Z,94.91
2018-12-03T03:18:18.575Z,94.8
2018-12-03T03:19:18.553Z,94.65
2018-12-03T03:20:18.665Z,94.92
2018-12-03T03:21:18.487Z,94.65
2018-12-03T03:22:18.478Z,94.67
2018-12-03T03:23:18.468Z,94.79
2018-12-03T03:24:18.461Z,94.79
2018-12-03T03:25:18.573Z,94.75
2018-12-03T03:26:18.376Z,94.83
2018-12-03T03:27:18.516Z,94.72
2018-12-03T03:28:18.408Z,94.91
2018-12-03T03:29:18.393Z,94.95
2018-12-03T03:30:18.555Z,94.82
2018-12-03T03:31:18.445Z,94.81
2018-12-03T03:32:18.420Z,94.76
2018-12-03T03:33:18.561Z,94.91
2018-12-03T03:34:18.441Z,94.72
2018-12-03T03:35:18.410Z,94.59
2018-12-03T03:36:18.540Z,94.53
2018-12-03T03:37:18.410Z,94.64
2018-12-03T03:38:18.427Z,94.59
2018-12-03T03:39:18.372Z,94.62
2018-12-03T03:40:18.394Z,94.55
2018-12-03T03:41:18.501Z,94.49
2018-12-03T03:42:18.346Z,94.51
2018-12-03T03:43:18.580Z,94.46
2018-12-03T03:44:18.486Z,94.51
2018-12-03T03:45:18.589Z,94.48
2018-12-03T03:46:18.471Z,94.46
2018-12-03T03:47:18.492Z,94.43
2018-12-03T03:48:18.627Z,94.42
2018-12-03T03:49:18.384Z,94.43
2018-12-03T03:50:18.493Z,94.35
2018-12-03T03:51:18.688Z,94.45
2018-12-03T03:52:18.403Z,94.42
2018-12-03T03:53:18.465Z,94.59
2018-12-03T03:54:18.346Z,94.54
2018-12-03T03:55:18.380Z,94.53
2018-12-03T03:56:18.433Z,94.5
2018-12-03T03:57:18.569Z,94.51
2018-12-03T03:58:18.566Z,94.46
2018-12-03T03:59:18.538Z,94.53
2018-12-03T04:00:18.377Z,94.35
2018-12-03T04:01:18.697Z,94.26
2018-12-03T04:02:18.610Z,94.43
2018-12-03T04:03:18.324Z,94.45
2018-12-03T04:04:18.451Z,94.22
2018-12-03T04:05:18.747Z,94.38
2018-12-03T04:06:18.488Z,94.39
2018-12-03T04:07:18.313Z,94.48
2018-12-03T04:08:18.406Z,94.4
2018-12-03T04:09:18.461Z,94.56
2018-12-03T04:10:18.470Z,94.58
2018-12-03T04:11:18.347Z,94.74
2018-12-03T04:12:18.342Z,94.81
2018-12-03T04:13:18.649Z,94.87
2018-12-03T04:14:18.456Z,94.85
2018-12-03T04:15:18.603Z,94.76
2018-12-03T04:16:18.420Z,94.79
2018-12-03T04:17:18.357Z,94.95
2018-12-03T04:18:18.438Z,94.92
2018-12-03T04:19:18.331Z,94.86
2018-12-03T04:20:18.529Z,94.89
2018-12-03T04:21:18.542Z,94.93
2018-12-03T04:22:18.403Z,95
2018-12-03T04:23:18.488Z,94.97
2018-12-03T04:24:18.660Z,95.06
2018-12-03T04:25:19.158Z,95.13
2018-12-03T04:26:19.142Z,95.23
2018-12-03T04:27:18.389Z,95.19
2018-12-03T04:28:18.310Z,95.15
2018-12-03T04:29:18.521Z,95.21
2018-12-03T04:30:18.534Z,95.36
2018-12-03T04:31:18.413Z,95.61
2018-12-03T04:32:18.440Z,95.62
2018-12-03T04:33:18.321Z,95.7
2018-12-03T04:34:18.329Z,95.72
2018-12-03T04:35:18.313Z,95.76
2018-12-03T04:36:18.454Z,95.83
2018-12-03T04:37:18.322Z,95.72
2018-12-03T04:38:18.297Z,95.77
2018-12-03T04:39:18.324Z,95.92
2018-12-03T04:40:18.366Z,95.92
2018-12-03T04:41:18.304Z,96.05
2018-12-03T04:42:18.413Z,96
2018-12-03T04:43:18.405Z,96.04
2018-12-03T04:44:18.375Z,96.06
2018-12-03T04:45:18.334Z,96.07
2018-12-03T04:46:18.321Z,96.07
2018-12-03T04:47:18.355Z,96
2018-12-03T04:48:18.435Z,96.01
2018-12-03T04:49:18.272Z,95.97
2018-12-03T04:50:18.482Z,95.93
2018-12-03T04:51:18.318Z,96.02
2018-12-03T04:52:18.289Z,96.04
2018-12-03T04:53:18.445Z,96.09
2018-12-03T04:54:19.178Z,96.11
2018-12-03T04:55:18.311Z,96.15
2018-12-03T04:56:18.352Z,96.18
2018-12-03T04:57:18.430Z,96.15
2018-12-03T04:58:18.382Z,96.16
2018-12-03T04:59:18.310Z,96.17
2018-12-03T05:00:18.502Z,96.16
2018-12-03T05:01:18.689Z,96.21
2018-12-03T05:02:18.606Z,96.32
2018-12-03T05:03:18.504Z,96.31
2018-12-03T05:04:18.288Z,96.36
2018-12-03T05:05:18.359Z,96.29
2018-12-03T05:06:18.509Z,96.3
2018-12-03T05:07:18.264Z,96.31
2018-12-03T05:08:18.501Z,96.32
2018-12-03T05:09:18.412Z,96.36
2018-12-03T05:10:18.294Z,96.34
2018-12-03T05:11:18.487Z,96.32
2018-12-03T05:12:18.377Z,96.27
2018-12-03T05:13:19.117Z,96.25
2018-12-03T05:14:18.343Z,96.22
2018-12-03T05:15:18.358Z,96.19
2018-12-03T05:16:18.346Z,96.2
2018-12-03T05:17:18.375Z,96.2
2018-12-03T05:18:18.266Z,96.25
2018-12-03T05:19:18.441Z,96.23
2018-12-03T05:20:18.404Z,96.24
2018-12-03T05:21:18.362Z,96.29
2018-12-03T05:22:18.267Z,96.3
2018-12-03T05:23:18.285Z,96.34
2018-12-03T05:24:18.476Z,96.3
2018-12-03T05:25:19.892Z,96.35
2018-12-03T05:26:18.398Z,96.3
2018-12-03T05:27:18.425Z,96.3
2018-12-03T05:28:18.310Z,96.3
2018-12-03T05:29:18.437Z,96.34
2018-12-03T05:30:18.214Z,96.25
2018-12-03T05:31:18.285Z,96.2
2018-12-03T05:32:18.302Z,96.13
2018-12-03T05:33:18.401Z,96.09
2018-12-03T05:34:18.272Z,96.12
2018-12-03T05:35:18.334Z,96.08
2018-12-03T05:36:18.293Z,96.02
2018-12-03T05:37:18.406Z,95.99
2018-12-03T05:38:18.225Z,95.97
2018-12-03T05:39:18.352Z,96.06
2018-12-03T05:40:18.469Z,96.02
2018-12-03T05:41:18.329Z,96.05
2018-12-03T05:42:18.226Z,95.98
2018-12-03T05:43:18.241Z,95.92
2018-12-03T05:44:19.131Z,95.77
2018-12-03T05:45:18.295Z,95.33
2018-12-03T05:46:18.294Z,95.17
2018-12-03T05:47:18.290Z,95.18
2018-12-03T05:48:18.354Z,95.24
2018-12-03T05:49:18.329Z,95.43
2018-12-03T05:50:18.292Z,95.41
2018-12-03T05:51:18.400Z,95.54
2018-12-03T05:52:18.350Z,95.48
2018-12-03T05:53:18.369Z,95.56
2018-12-03T05:54:18.234Z,95.66
2018-12-03T05:55:18.501Z,95.87
2018-12-03T05:56:18.203Z,95.89
2018-12-03T05:57:18.287Z,95.99
2018-12-03T05:58:18.344Z,96.03
2018-12-03T05:59:18.349Z,96.07
2018-12-03T06:00:18.238Z,96.08
2018-12-03T06:01:18.264Z,96.16
2018-12-03T06:02:18.598Z,96.14
2018-12-03T06:03:18.243Z,96.12
2018-12-03T06:04:18.559Z,96.18
2018-12-03T06:05:19.039Z,96.25
2018-12-03T06:06:18.235Z,96.28
2018-12-03T06:07:18.288Z,96.3
2018-12-03T06:08:18.317Z,96.32
2018-12-03T06:09:18.451Z,96.3
2018-12-03T06:10:18.259Z,96.28
2018-12-03T06:11:18.224Z,96.3
2018-12-03T06:12:18.464Z,96.24
2018-12-03T06:13:18.404Z,96.19
2018-12-03T06:14:18.218Z,96.1
2018-12-03T06:15:18.398Z,96.16
2018-12-03T06:16:18.179Z,96.15
2018-12-03T06:17:18.198Z,96.12
2018-12-03T06:18:18.144Z,96.19
2018-12-03T06:19:18.202Z,96.14
2018-12-03T06:20:18.176Z,96.02
2018-12-03T06:21:18.486Z,95.93
2018-12-03T06:22:18.171Z,95.93
2018-12-03T06:23:18.211Z,95.91
2018-12-03T06:24:18.148Z,95.94
2018-12-03T06:25:18.200Z,96
2018-12-03T06:26:18.303Z,95.97
2018-12-03T06:27:18.207Z,95.93
2018-12-03T06:28:18.215Z,95.96
2018-12-03T06:29:19.026Z,96.01
2018-12-03T06:30:18.240Z,95.91
2018-12-03T06:31:18.404Z,95.99
2018-12-03T06:32:18.308Z,96.04
2018-12-03T06:33:18.506Z,95.85
2018-12-03T06:34:19.265Z,95.89
2018-12-03T06:35:18.228Z,95.62
2018-12-03T06:36:18.212Z,95.55
2018-12-03T06:37:18.390Z,95.31
2018-12-03T06:38:18.305Z,95.34
2018-12-03T06:39:18.353Z,95.45
2018-12-03T06:40:19.062Z,95.5
2018-12-03T06:41:18.541Z,95.32
2018-12-03T06:42:18.410Z,95.28
2018-12-03T06:43:18.169Z,95.11
2018-12-03T06:44:18.141Z,94.97
2018-12-03T06:45:18.233Z,95
2018-12-03T06:46:18.423Z,95.04
2018-12-03T06:47:18.317Z,95.05
2018-12-03T06:48:18.502Z,95.02
2018-12-03T06:49:18.408Z,94.89
2018-12-03T06:50:18.175Z,94.95
2018-12-03T06:51:18.154Z,94.95
2018-12-03T06:52:18.361Z,94.99
2018-12-03T06:53:18.324Z,95
2018-12-03T06:54:18.575Z,95.07
2018-12-03T06:55:18.166Z,95.07
2018-12-03T06:56:18.238Z,95.06
2018-12-03T06:57:18.201Z,95.05
2018-12-03T06:58:18.176Z,94.85
2018-12-03T06:59:18.338Z,94.94
2018-12-03T07:00:18.233Z,94.95
2018-12-03T07:01:18.196Z,94.95
2018-12-03T07:02:18.296Z,94.92
2018-12-03T07:03:18.242Z,94.83
2018-12-03T07:04:18.352Z,94.73
2018-12-03T07:05:18.317Z,94.73
2018-12-03T07:06:18.225Z,94.61
2018-12-03T07:07:18.282Z,94.64
2018-12-03T07:08:18.347Z,94.72
2018-12-03T07:09:18.467Z,94.78
2018-12-03T07:10:18.187Z,94.88
2018-12-03T07:11:18.168Z,94.9
2018-12-03T07:12:18.181Z,94.89
2018-12-03T07:13:18.303Z,94.9
2018-12-03T07:14:18.179Z,94.9
2018-12-03T07:15:18.200Z,94.97
2018-12-03T07:16:18.166Z,94.9
2018-12-03T07:17:18.197Z,94.83
2018-12-03T07:18:18.281Z,94.85
2018-12-03T07:19:18.276Z,94.9
2018-12-03T07:20:18.247Z,94.96
2018-12-03T07:21:18.981Z,95.02
2018-12-03T07:22:18.532Z,95.06
2018-12-03T07:23:18.256Z,94.94
2018-12-03T07:24:18.201Z,94.95
2018-12-03T07:25:18.070Z,95.05
2018-12-03T07:26:18.189Z,95.09
2018-12-03T07:27:18.188Z,95.14
2018-12-03T07:28:18.199Z,95.15
2018-12-03T07:29:18.234Z,95.12
2018-12-03T07:30:18.149Z,95.08
2018-12-03T07:31:18.355Z,95.07
2018-12-03T07:32:18.126Z,95.07
2018-12-03T07:33:18.310Z,95.02
2018-12-03T07:34:18.060Z,94.96
2018-12-03T07:35:18.882Z,95.04
2018-12-03T07:36:18.113Z,94.98
2018-12-03T07:37:18.080Z,94.92
2018-12-03T07:38:18.941Z,94.86
2018-12-03T07:39:18.286Z,94.9
2018-12-03T07:40:18.300Z,94.86
2018-12-03T07:41:18.135Z,94.85
2018-12-03T07:42:18.138Z,94.91
2018-12-03T07:43:18.191Z,94.84
2018-12-03T07:44:18.169Z,94.7
2018-12-03T07:45:18.295Z,94.78
2018-12-03T07:46:18.221Z,94.94
2018-12-03T07:47:18.139Z,95
2018-12-03T07:48:18.129Z,95.16
2018-12-03T07:49:18.132Z,95.2
2018-12-03T07:50:18.484Z,95.17
2018-12-03T07:51:18.102Z,95.09
2018-12-03T07:52:18.153Z,95.1
2018-12-03T07:53:18.153Z,95.08
2018-12-03T07:54:18.090Z,95.1
2018-12-03T07:55:18.113Z,95
2018-12-03T07:56:18.101Z,95.05
2018-12-03T07:57:18.074Z,95.08
2018-12-03T07:58:18.112Z,94.99
2018-12-03T07:59:18.069Z,94.99
2018-12-03T08:00:18.110Z,94.97
2018-12-03T08:01:18.149Z,94.94
2018-12-03T08:02:18.109Z,95.01
2018-12-03T08:03:18.065Z,94.98
2018-12-03T08:04:18.141Z,94.87
2018-12-03T08:05:18.150Z,95.05
2018-12-03T08:06:18.070Z,95.25
2018-12-03T08:07:18.148Z,95.28
2018-12-03T08:08:18.370Z,95.31
2018-12-03T08:09:18.246Z,95.43
2018-12-03T08:10:18.110Z,95.39
2018-12-03T08:11:18.330Z,95.45
2018-12-03T08:12:18.193Z,95.6
2018-12-03T08:13:18.155Z,95.56
2018-12-03T08:14:18.282Z,95.65
2018-12-03T08:15:18.134Z,95.64
2018-12-03T08:16:18.094Z,95.7
2018-12-03T08:17:18.383Z,95.77
2018-12-03T08:18:20.336Z,95.8
2018-12-03T08:19:18.433Z,95.77
2018-12-03T08:20:18.239Z,95.82
2018-12-03T08:21:18.398Z,95.69
2018-12-03T08:22:18.356Z,95.67
2018-12-03T08:23:18.135Z,95.72
2018-12-03T08:24:18.196Z,95.82
2018-12-03T08:25:18.972Z,95.8
2018-12-03T08:26:20.547Z,95.82
2018-12-03T08:27:18.249Z,95.88
2018-12-03T08:28:18.183Z,95.89
2018-12-03T08:29:18.011Z,95.74
2018-12-03T08:30:18.238Z,95.76
2018-12-03T08:31:18.295Z,95.73
2018-12-03T08:32:18.242Z,95.83
2018-12-03T08:33:18.128Z,95.78
2018-12-03T08:34:18.062Z,95.88
2018-12-03T08:35:18.110Z,95.86
2018-12-03T08:36:18.279Z,96
2018-12-03T08:37:18.117Z,96.11
2018-12-03T08:38:18.142Z,96.18
2018-12-03T08:39:18.095Z,96.15
2018-12-03T08:40:18.179Z,96.11
2018-12-03T08:41:18.405Z,96.17
2018-12-03T08:42:19.220Z,96.13
2018-12-03T08:43:18.137Z,96.42
2018-12-03T08:44:18.110Z,96.31
2018-12-03T08:45:18.295Z,96.44
2018-12-03T08:46:18.287Z,96.48
2018-12-03T08:47:18.040Z,96.33
2018-12-03T08:48:18.093Z,96.29
2018-12-03T08:49:18.140Z,96.32
2018-12-03T08:50:18.089Z,96.36
2018-12-03T08:51:18.388Z,96.34
2018-12-03T08:52:18.038Z,96.36
2018-12-03T08:53:19.071Z,96.39
2018-12-03T08:54:18.074Z,96.31
2018-12-03T08:55:18.148Z,96.14
2018-12-03T08:56:18.259Z,96.18
2018-12-03T08:57:19.364Z,96.12
2018-12-03T08:58:21.307Z,96.12
2018-12-03T08:59:18.371Z,96.07
2018-12-03T09:00:18.852Z,95.81
2018-12-03T09:01:18.408Z,95.95
2018-12-03T09:02:18.169Z,95.95
2018-12-03T09:03:18.050Z,95.81
2018-12-03T09:04:18.237Z,95.8
2018-12-03T09:05:19.752Z,95.88
2018-12-03T09:06:18.366Z,95.86
2018-12-03T09:07:20.579Z,95.77
2018-12-03T09:08:18.004Z,95.54
2018-12-03T09:09:18.103Z,95.47
2018-12-03T09:10:18.342Z,95.41
2018-12-03T09:11:18.212Z,95.42
2018-12-03T09:12:22.164Z,95.4
2018-12-03T09:13:18.221Z,95.34
2018-12-03T09:14:18.271Z,95.42
2018-12-03T09:15:18.164Z,95.33
2018-12-03T09:16:18.015Z,95.42
2018-12-03T09:17:18.030Z,95.45
2018-12-03T09:18:18.876Z,95.61
2018-12-03T09:19:18.866Z,95.37
2018-12-03T09:20:18.196Z,95.3
2018-12-03T09:21:18.260Z,95.22
2018-12-03T09:22:18.122Z,95.22
2018-12-03T09:23:21.546Z,95.2
2018-12-03T09:24:18.154Z,95.33
2018-12-03T09:25:19.118Z,95.23
2018-12-03T09:26:18.099Z,95.2
2018-12-03T09:27:18.297Z,95.09
2018-12-03T09:28:18.111Z,95.05
2018-12-03T09:29:18.091Z,94.96
2018-12-03T09:30:18.043Z,94.91
2018-12-03T09:31:18.101Z,94.88
2018-12-03T09:32:18.039Z,94.82
2018-12-03T09:33:18.055Z,94.61
2018-12-03T09:34:18.104Z,94.65
2018-12-03T09:35:18.625Z,94.63
2018-12-03T09:36:18.060Z,94.71
2018-12-03T09:37:19.127Z,94.75
2018-12-03T09:38:18.046Z,94.92
2018-12-03T09:39:18.056Z,94.97
2018-12-03T09:40:18.093Z,95.26
2018-12-03T09:41:18.020Z,95.24
2018-12-03T09:42:17.998Z,95.29
2018-12-03T09:43:18.162Z,95.27
2018-12-03T09:44:18.152Z,94.87
2018-12-03T09:45:18.170Z,94.54
2018-12-03T09:46:17.976Z,94.39
2018-12-03T09:47:18.040Z,94.6
2018-12-03T09:48:18.038Z,94.51
2018-12-03T09:49:18.168Z,94.55
2018-12-03T09:50:18.186Z,94.51
2018-12-03T09:51:18.034Z,94.66
2018-12-03T09:52:18.198Z,94.7
2018-12-03T09:53:17.942Z,94.42
2018-12-03T09:54:17.948Z,94.54
2018-12-03T09:55:18.064Z,94.59
2018-12-03T09:56:17.997Z,94.7
2018-12-03T09:57:18.267Z,94.58
2018-12-03T09:58:17.960Z,94.58
2018-12-03T09:59:18.134Z,94.71
2018-12-03T10:00:18.059Z,94.75
2018-12-03T10:01:18.104Z,94.78
2018-12-03T10:02:18.122Z,94.82
2018-12-03T10:03:18.264Z,94.89
2018-12-03T10:04:17.967Z,95.01
2018-12-03T10:05:18.060Z,95.21
2018-12-03T10:06:18.033Z,95.26
2018-12-03T10:07:18.086Z,95.31
2018-12-03T10:08:17.996Z,95.61
2018-12-03T10:09:18.068Z,95.45
2018-12-03T10:10:18.111Z,95.21
2018-12-03T10:11:18.378Z,94.87
2018-12-03T10:12:18.501Z,94.82
2018-12-03T10:13:18.264Z,94.91
2018-12-03T10:14:18.039Z,94.84
2018-12-03T10:15:18.096Z,94.8
2018-12-03T10:16:17.934Z,94.78
2018-12-03T10:17:18.053Z,94.86
2018-12-03T10:18:18.550Z,94.75
2018-12-03T10:19:18.120Z,94.73
2018-12-03T10:20:18.255Z,94.63
2018-12-03T10:21:17.968Z,94.58
2018-12-03T10:22:18.037Z,94.83
2018-12-03T10:23:18.148Z,94.8
2018-12-03T10:24:18.348Z,94.65
2018-12-03T10:25:18.118Z,94.65
2018-12-03T10:26:17.935Z,94.52
2018-12-03T10:27:18.053Z,94.7
2018-12-03T10:28:18.648Z,94.47
2018-12-03T10:29:18.176Z,94.29
2018-12-03T10:30:18.161Z,94.33
2018-12-03T10:31:17.895Z,94.26
2018-12-03T10:32:18.130Z,94.25
2018-12-03T10:33:18.084Z,94.43
2018-12-03T10:34:18.094Z,94.53
2018-12-03T10:35:18.153Z,94.69
2018-12-03T10:36:17.976Z,94.69
2018-12-03T10:37:17.987Z,94.39
2018-12-03T10:38:17.979Z,94.55
2018-12-03T10:39:18.091Z,94.56
2018-12-03T10:40:20.842Z,94.62
2018-12-03T10:41:17.873Z,94.69
2018-12-03T10:42:18.204Z,94.51
2018-12-03T10:43:18.018Z,94.39
2018-12-03T10:44:18.042Z,94.35
2018-12-03T10:45:17.931Z,94.27
2018-12-03T10:46:17.886Z,94.6
2018-12-03T10:47:18.530Z,94.5
2018-12-03T10:48:18.081Z,94.49
2018-12-03T10:49:18.085Z,94.54
2018-12-03T10:50:22.546Z,94.47
2018-12-03T10:51:18.092Z,94.6
2018-12-03T10:52:17.892Z,94.58
2018-12-03T10:53:18.155Z,94.48
2018-12-03T10:54:18.149Z,94.45
2018-12-03T10:55:18.269Z,94.43
2018-12-03T10:56:17.919Z,94.44
2018-12-03T10:57:18.141Z,94.31
2018-12-03T10:58:17.886Z,94.33
2018-12-03T10:59:17.884Z,94.24
2018-12-03T11:00:17.888Z,94.3
2018-12-03T11:01:17.895Z,94.16
2018-12-03T11:02:17.850Z,94.32
2018-12-03T11:03:17.874Z,94.43
2018-12-03T11:04:18.091Z,94.37
2018-12-03T11:05:17.854Z,94.48
2018-12-03T11:06:18.208Z,94.61
2018-12-03T11:07:17.990Z,94.69
2018-12-03T11:08:17.851Z,94.6
2018-12-03T11:09:17.855Z,94.53
2018-12-03T11:10:17.886Z,94.52
2018-12-03T11:11:18.004Z,94.53
2018-12-03T11:12:18.211Z,94.4
2018-12-03T11:13:18.080Z,94.45
2018-12-03T11:14:18.101Z,94.44
2018-12-03T11:15:17.837Z,94.49
2018-12-03T11:16:17.916Z,94.45
2018-12-03T11:17:17.824Z,94.57
2018-12-03T11:18:17.858Z,94.53
2018-12-03T11:19:17.814Z,94.85
2018-12-03T11:20:17.877Z,94.72
2018-12-03T11:21:18.222Z,94.59
2018-12-03T11:22:18.058Z,94.35
2018-12-03T11:23:17.896Z,94.36
2018-12-03T11:24:17.838Z,94.33
2018-12-03T11:25:18.131Z,94.22
2018-12-03T11:26:17.836Z,94.19
2018-12-03T11:27:18.064Z,94.22
2018-12-03T11:28:17.890Z,94.35
2018-12-03T11:29:17.922Z,94.41
2018-12-03T11:30:18.160Z,94.46
2018-12-03T11:31:18.242Z,94.35
2018-12-03T11:32:17.820Z,94.4
2018-12-03T11:33:17.830Z,94.48
2018-12-03T11:34:17.967Z,94.44
2018-12-03T11:35:18.164Z,94.36
2018-12-03T11:36:18.042Z,94.43
2018-12-03T11:37:17.903Z,94.37
2018-12-03T11:38:18.660Z,94.44
2018-12-03T11:39:18.054Z,94.53
2018-12-03T11:40:17.801Z,94.58
2018-12-03T11:41:17.869Z,94.7
2018-12-03T11:42:18.168Z,94.85
2018-12-03T11:43:18.186Z,94.94
2018-12-03T11:44:17.797Z,94.8
2018-12-03T11:45:18.030Z,94.81
2018-12-03T11:46:17.834Z,94.81
2018-12-03T11:47:17.988Z,94.9
2018-12-03T11:48:17.950Z,95.07
2018-12-03T11:49:18.227Z,95
2018-12-03T11:50:17.889Z,95
2018-12-03T11:51:17.778Z,94.85
2018-12-03T11:52:18.049Z,94.93
2018-12-03T11:53:18.576Z,95.02
2018-12-03T11:54:17.969Z,94.98
2018-12-03T11:55:17.909Z,95.35
2018-12-03T11:56:18.070Z,95.56
2018-12-03T11:57:17.837Z,95.4
2018-12-03T11:58:25.629Z,95.3
2018-12-03T11:59:18.194Z,95.17
2018-12-03T12:00:17.847Z,95.28
2018-12-03T12:01:17.914Z,95.76
2018-12-03T12:02:18.203Z,95.75
2018-12-03T12:03:18.021Z,95.77
2018-12-03T12:04:17.976Z,95.65
2018-12-03T12:05:17.880Z,95.65
2018-12-03T12:06:18.181Z,95.64
2018-12-03T12:07:18.015Z,95.7
2018-12-03T12:08:17.872Z,95.76
2018-12-03T12:09:21.321Z,95.69
2018-12-03T12:10:21.128Z,95.77
2018-12-03T12:11:18.196Z,95.69
2018-12-03T12:12:17.950Z,95.78
2018-12-03T12:13:17.949Z,95.72
2018-12-03T12:14:18.288Z,95.7
2018-12-03T12:15:17.903Z,95.89
2018-12-03T12:16:18.048Z,95.86
2018-12-03T12:17:17.997Z,95.84
2018-12-03T12:18:18.046Z,95.81
2018-12-03T12:19:17.947Z,95.92
2018-12-03T12:20:17.883Z,96.01
2018-12-03T12:21:17.741Z,96.51
2018-12-03T12:22:17.763Z,96.39
2018-12-03T12:23:17.755Z,96.24
2018-12-03T12:24:17.766Z,96.11
2018-12-03T12:25:18.194Z,96.05
2018-12-03T12:26:17.809Z,96.06
2018-12-03T12:27:17.900Z,96.07
2018-12-03T12:28:17.772Z,95.98
2018-12-03T12:29:17.812Z,95.94
2018-12-03T12:30:17.892Z,95.92
2018-12-03T12:31:17.931Z,95.8
2018-12-03T12:32:18.144Z,95.93
2018-12-03T12:33:18.357Z,95.87
2018-12-03T12:34:17.802Z,95.81
2018-12-03T12:35:18.174Z,95.73
2018-12-03T12:36:18.578Z,95.65
2018-12-03T12:37:17.842Z,95.63
2018-12-03T12:38:17.845Z,95.58
2018-12-03T12:39:17.776Z,95.59
2018-12-03T12:40:17.787Z,95.8
2018-12-03T12:41:17.757Z,95.79
2018-12-03T12:42:17.728Z,95.7
2018-12-03T12:43:17.807Z,95.65
2018-12-03T12:44:17.754Z,95.61
2018-12-03T12:45:17.856Z,95.62
2018-12-03T12:46:17.766Z,95.65
2018-12-03T12:47:17.743Z,95.7
2018-12-03T12:48:17.806Z,95.64
2018-12-03T12:49:17.805Z,95.68
2018-12-03T12:50:17.856Z,95.65
2018-12-03T12:51:17.826Z,95.66
2018-12-03T12:52:18.072Z,95.74
2018-12-03T12:53:17.762Z,95.86
2018-12-03T12:54:17.746Z,95.76
2018-12-03T12:55:17.862Z,95.84
2018-12-03T12:56:18.126Z,95.84